sensor_id;sensor_type;location;lat;lon;timestamp;P1;durP1;ratioP1;P2;durP2;ratioP2
22829;SDS011;11581;51.250;6.778;2023-02-01T00:01:05;10.25;;;4.22;;
22829;SDS011;11581;51.250;6.778;2023-02-01T00:03:32;10.90;;;4.15;;
22829;SDS011;11581;51.250;6.778;2023-02-01T00:05:59;9.90;;;3.97;;
22829;SDS011;11581;51.250;6.778;2023-02-01T00:08:26;12.93;;;4.40;;
22829;SDS011;11581;51.250;6.778;2023-02-01T00:11:00;9.93;;;3.72;;
22829;SDS011;11581;51.250;6.778;2023-02-01T00:13:28;9.68;;;4.07;;
22829;SDS011;11581;51.250;6.778;2023-02-01T00:16:03;10.65;;;4.45;;
22829;SDS011;11581;51.250;6.778;2023-02-01T00:18:30;9.13;;;4.38;;
22829;SDS011;11581;51.250;6.778;2023-02-01T00:20:57;11.30;;;5.00;;
22829;SDS011;11581;51.250;6.778;2023-02-01T00:23:24;8.90;;;4.40;;
22829;SDS011;11581;51.250;6.778;2023-02-01T00:25:51;14.13;;;5.00;;
22829;SDS011;11581;51.250;6.778;2023-02-01T00:28:18;11.43;;;5.07;;
22829;SDS011;11581;51.250;6.778;2023-02-01T00:30:44;10.57;;;5.20;;
22829;SDS011;11581;51.250;6.778;2023-02-01T00:33:12;11.10;;;4.68;;
22829;SDS011;11581;51.250;6.778;2023-02-01T00:35:39;11.45;;;6.15;;
22829;SDS011;11581;51.250;6.778;2023-02-01T00:38:05;11.40;;;5.53;;
22829;SDS011;11581;51.250;6.778;2023-02-01T00:40:32;15.30;;;5.13;;
22829;SDS011;11581;51.250;6.778;2023-02-01T00:42:59;14.43;;;6.40;;
22829;SDS011;11581;51.250;6.778;2023-02-01T00:45:25;15.52;;;5.82;;
22829;SDS011;11581;51.250;6.778;2023-02-01T00:47:52;12.65;;;5.78;;
22829;SDS011;11581;51.250;6.778;2023-02-01T00:50:20;16.45;;;6.57;;
22829;SDS011;11581;51.250;6.778;2023-02-01T00:52:46;13.43;;;5.43;;
22829;SDS011;11581;51.250;6.778;2023-02-01T00:55:13;15.45;;;5.50;;
22829;SDS011;11581;51.250;6.778;2023-02-01T00:57:40;18.40;;;5.35;;
22829;SDS011;11581;51.250;6.778;2023-02-01T01:00:07;16.73;;;5.97;;
22829;SDS011;11581;51.250;6.778;2023-02-01T01:02:35;11.38;;;5.20;;
22829;SDS011;11581;51.250;6.778;2023-02-01T01:05:02;16.52;;;4.35;;
22829;SDS011;11581;51.250;6.778;2023-02-01T01:07:30;10.25;;;4.40;;
22829;SDS011;11581;51.250;6.778;2023-02-01T01:09:56;13.35;;;4.95;;
22829;SDS011;11581;51.250;6.778;2023-02-01T01:12:23;13.73;;;4.72;;
22829;SDS011;11581;51.250;6.778;2023-02-01T01:14:50;12.30;;;4.20;;
22829;SDS011;11581;51.250;6.778;2023-02-01T01:17:16;9.40;;;4.22;;
22829;SDS011;11581;51.250;6.778;2023-02-01T01:19:43;12.55;;;4.18;;
22829;SDS011;11581;51.250;6.778;2023-02-01T01:22:10;13.30;;;4.03;;
22829;SDS011;11581;51.250;6.778;2023-02-01T01:24:38;15.35;;;4.30;;
22829;SDS011;11581;51.250;6.778;2023-02-01T01:27:05;14.73;;;4.32;;
22829;SDS011;11581;51.250;6.778;2023-02-01T01:29:32;10.93;;;4.00;;
22829;SDS011;11581;51.250;6.778;2023-02-01T01:31:58;12.10;;;3.80;;
22829;SDS011;11581;51.250;6.778;2023-02-01T01:34:25;9.73;;;2.95;;
22829;SDS011;11581;51.250;6.778;2023-02-01T01:36:52;8.70;;;3.17;;
22829;SDS011;11581;51.250;6.778;2023-02-01T01:39:18;11.38;;;3.67;;
22829;SDS011;11581;51.250;6.778;2023-02-01T01:41:46;9.15;;;3.38;;
22829;SDS011;11581;51.250;6.778;2023-02-01T01:47:22;10.27;;;3.00;;
22829;SDS011;11581;51.250;6.778;2023-02-01T01:49:49;10.15;;;2.65;;
22829;SDS011;11581;51.250;6.778;2023-02-01T01:52:17;13.40;;;2.92;;
22829;SDS011;11581;51.250;6.778;2023-02-01T01:54:45;10.90;;;3.20;;
22829;SDS011;11581;51.250;6.778;2023-02-01T01:57:16;7.72;;;2.58;;
22829;SDS011;11581;51.250;6.778;2023-02-01T01:59:46;12.75;;;3.15;;
22829;SDS011;11581;51.250;6.778;2023-02-01T02:02:16;9.77;;;2.60;;
22829;SDS011;11581;51.250;6.778;2023-02-01T02:04:45;12.32;;;2.58;;
22829;SDS011;11581;51.250;6.778;2023-02-01T02:07:14;15.85;;;3.28;;
22829;SDS011;11581;51.250;6.778;2023-02-01T02:09:44;9.98;;;2.70;;
22829;SDS011;11581;51.250;6.778;2023-02-01T02:12:10;9.00;;;2.85;;
22829;SDS011;11581;51.250;6.778;2023-02-01T02:14:39;8.60;;;2.70;;
22829;SDS011;11581;51.250;6.778;2023-02-01T02:17:18;14.40;;;2.78;;
22829;SDS011;11581;51.250;6.778;2023-02-01T02:20:11;9.60;;;2.90;;
22829;SDS011;11581;51.250;6.778;2023-02-01T02:23:13;9.50;;;2.78;;
22829;SDS011;11581;51.250;6.778;2023-02-01T02:26:12;9.93;;;2.35;;
22829;SDS011;11581;51.250;6.778;2023-02-01T02:32:04;14.52;;;2.55;;
22829;SDS011;11581;51.250;6.778;2023-02-01T02:34:45;13.38;;;3.28;;
22829;SDS011;11581;51.250;6.778;2023-02-01T02:37:20;17.45;;;2.83;;
22829;SDS011;11581;51.250;6.778;2023-02-01T02:39:59;14.57;;;3.00;;
22829;SDS011;11581;51.250;6.778;2023-02-01T02:42:36;12.45;;;2.72;;
22829;SDS011;11581;51.250;6.778;2023-02-01T02:45:26;11.90;;;2.88;;
22829;SDS011;11581;51.250;6.778;2023-02-01T02:48:16;8.15;;;2.65;;
22829;SDS011;11581;51.250;6.778;2023-02-01T02:50:49;8.82;;;2.90;;
22829;SDS011;11581;51.250;6.778;2023-02-01T02:53:39;10.70;;;2.85;;
22829;SDS011;11581;51.250;6.778;2023-02-01T02:56:30;9.98;;;3.03;;
22829;SDS011;11581;51.250;6.778;2023-02-01T02:59:17;11.35;;;2.40;;
22829;SDS011;11581;51.250;6.778;2023-02-01T03:02:05;14.25;;;3.33;;
22829;SDS011;11581;51.250;6.778;2023-02-01T03:04:52;8.88;;;2.50;;
22829;SDS011;11581;51.250;6.778;2023-02-01T03:10:26;10.20;;;2.25;;
22829;SDS011;11581;51.250;6.778;2023-02-01T03:13:03;13.45;;;3.53;;
22829;SDS011;11581;51.250;6.778;2023-02-01T03:15:35;9.55;;;3.17;;
22829;SDS011;11581;51.250;6.778;2023-02-01T03:18:04;13.95;;;3.28;;
22829;SDS011;11581;51.250;6.778;2023-02-01T03:20:37;11.00;;;2.72;;
22829;SDS011;11581;51.250;6.778;2023-02-01T03:23:06;11.75;;;2.97;;
22829;SDS011;11581;51.250;6.778;2023-02-01T03:25:36;9.32;;;2.50;;
22829;SDS011;11581;51.250;6.778;2023-02-01T03:28:04;7.68;;;2.78;;
22829;SDS011;11581;51.250;6.778;2023-02-01T03:30:36;12.30;;;3.92;;
22829;SDS011;11581;51.250;6.778;2023-02-01T03:33:06;17.45;;;3.53;;
22829;SDS011;11581;51.250;6.778;2023-02-01T03:35:40;13.57;;;2.67;;
22829;SDS011;11581;51.250;6.778;2023-02-01T03:38:12;8.35;;;2.80;;
22829;SDS011;11581;51.250;6.778;2023-02-01T03:40:46;16.30;;;3.75;;
22829;SDS011;11581;51.250;6.778;2023-02-01T03:43:18;14.82;;;3.15;;
22829;SDS011;11581;51.250;6.778;2023-02-01T03:45:48;13.35;;;3.63;;
22829;SDS011;11581;51.250;6.778;2023-02-01T03:48:18;14.57;;;3.13;;
22829;SDS011;11581;51.250;6.778;2023-02-01T03:50:49;13.60;;;3.30;;
22829;SDS011;11581;51.250;6.778;2023-02-01T03:53:20;10.85;;;3.13;;
22829;SDS011;11581;51.250;6.778;2023-02-01T03:55:52;10.02;;;2.75;;
22829;SDS011;11581;51.250;6.778;2023-02-01T03:58:20;9.68;;;2.80;;
22829;SDS011;11581;51.250;6.778;2023-02-01T04:00:50;10.23;;;3.08;;
22829;SDS011;11581;51.250;6.778;2023-02-01T04:03:18;10.38;;;2.90;;
22829;SDS011;11581;51.250;6.778;2023-02-01T04:05:45;15.30;;;3.70;;
22829;SDS011;11581;51.250;6.778;2023-02-01T04:08:11;9.27;;;2.40;;
22829;SDS011;11581;51.250;6.778;2023-02-01T04:10:38;14.88;;;3.38;;
22829;SDS011;11581;51.250;6.778;2023-02-01T04:13:06;15.23;;;3.13;;
22829;SDS011;11581;51.250;6.778;2023-02-01T04:15:33;9.52;;;3.00;;
22829;SDS011;11581;51.250;6.778;2023-02-01T04:18:00;13.45;;;2.85;;
22829;SDS011;11581;51.250;6.778;2023-02-01T04:20:27;11.85;;;3.08;;
22829;SDS011;11581;51.250;6.778;2023-02-01T04:22:54;11.00;;;2.45;;
22829;SDS011;11581;51.250;6.778;2023-02-01T04:25:20;11.25;;;2.97;;
22829;SDS011;11581;51.250;6.778;2023-02-01T04:27:47;10.52;;;2.28;;
22829;SDS011;11581;51.250;6.778;2023-02-01T04:30:16;11.57;;;2.95;;
22829;SDS011;11581;51.250;6.778;2023-02-01T04:32:43;13.60;;;2.88;;
22829;SDS011;11581;51.250;6.778;2023-02-01T04:35:10;9.43;;;2.40;;
22829;SDS011;11581;51.250;6.778;2023-02-01T04:37:36;12.82;;;2.63;;
22829;SDS011;11581;51.250;6.778;2023-02-01T04:40:03;15.15;;;3.25;;
22829;SDS011;11581;51.250;6.778;2023-02-01T04:42:31;12.05;;;2.58;;
22829;SDS011;11581;51.250;6.778;2023-02-01T04:44:58;10.52;;;3.17;;
22829;SDS011;11581;51.250;6.778;2023-02-01T04:47:26;10.05;;;2.75;;
22829;SDS011;11581;51.250;6.778;2023-02-01T04:49:52;10.02;;;2.88;;
22829;SDS011;11581;51.250;6.778;2023-02-01T04:52:19;21.13;;;3.85;;
22829;SDS011;11581;51.250;6.778;2023-02-01T04:54:45;15.93;;;3.25;;
22829;SDS011;11581;51.250;6.778;2023-02-01T04:57:12;12.82;;;3.35;;
22829;SDS011;11581;51.250;6.778;2023-02-01T04:59:40;12.98;;;2.60;;
22829;SDS011;11581;51.250;6.778;2023-02-01T05:02:06;10.30;;;3.17;;
22829;SDS011;11581;51.250;6.778;2023-02-01T05:04:34;12.55;;;3.15;;
22829;SDS011;11581;51.250;6.778;2023-02-01T05:07:01;17.02;;;3.55;;
22829;SDS011;11581;51.250;6.778;2023-02-01T05:09:28;13.85;;;3.25;;
22829;SDS011;11581;51.250;6.778;2023-02-01T05:11:54;13.45;;;2.55;;
22829;SDS011;11581;51.250;6.778;2023-02-01T05:14:39;10.25;;;2.40;;
22829;SDS011;11581;51.250;6.778;2023-02-01T05:17:05;15.07;;;3.28;;
22829;SDS011;11581;51.250;6.778;2023-02-01T05:19:32;15.30;;;3.05;;
22829;SDS011;11581;51.250;6.778;2023-02-01T05:22:00;14.50;;;3.70;;
22829;SDS011;11581;51.250;6.778;2023-02-01T05:24:26;16.35;;;3.40;;
22829;SDS011;11581;51.250;6.778;2023-02-01T05:26:53;18.08;;;3.38;;
22829;SDS011;11581;51.250;6.778;2023-02-01T05:29:20;13.85;;;3.03;;
22829;SDS011;11581;51.250;6.778;2023-02-01T05:31:46;15.60;;;2.58;;
22829;SDS011;11581;51.250;6.778;2023-02-01T05:34:13;17.00;;;3.42;;
22829;SDS011;11581;51.250;6.778;2023-02-01T05:36:40;11.52;;;2.90;;
22829;SDS011;11581;51.250;6.778;2023-02-01T05:39:08;14.05;;;3.20;;
22829;SDS011;11581;51.250;6.778;2023-02-01T05:41:35;11.63;;;3.28;;
22829;SDS011;11581;51.250;6.778;2023-02-01T05:44:02;13.68;;;3.53;;
22829;SDS011;11581;51.250;6.778;2023-02-01T05:46:30;13.13;;;3.05;;
22829;SDS011;11581;51.250;6.778;2023-02-01T05:48:57;12.50;;;2.72;;
22829;SDS011;11581;51.250;6.778;2023-02-01T05:51:24;13.77;;;3.10;;
22829;SDS011;11581;51.250;6.778;2023-02-01T05:53:51;14.07;;;3.08;;
22829;SDS011;11581;51.250;6.778;2023-02-01T05:56:19;12.73;;;2.85;;
22829;SDS011;11581;51.250;6.778;2023-02-01T05:58:45;17.23;;;3.38;;
22829;SDS011;11581;51.250;6.778;2023-02-01T06:01:12;17.05;;;3.17;;
22829;SDS011;11581;51.250;6.778;2023-02-01T06:03:39;12.38;;;2.95;;
22829;SDS011;11581;51.250;6.778;2023-02-01T06:06:06;17.40;;;3.60;;
22829;SDS011;11581;51.250;6.778;2023-02-01T06:08:32;12.40;;;2.53;;
22829;SDS011;11581;51.250;6.778;2023-02-01T06:10:59;15.20;;;3.10;;
22829;SDS011;11581;51.250;6.778;2023-02-01T06:13:28;11.80;;;3.33;;
22829;SDS011;11581;51.250;6.778;2023-02-01T06:15:55;19.25;;;3.40;;
22829;SDS011;11581;51.250;6.778;2023-02-01T06:18:22;16.40;;;3.65;;
22829;SDS011;11581;51.250;6.778;2023-02-01T06:20:51;15.23;;;2.85;;
22829;SDS011;11581;51.250;6.778;2023-02-01T06:23:19;12.23;;;3.22;;
22829;SDS011;11581;51.250;6.778;2023-02-01T06:25:49;12.98;;;2.83;;
22829;SDS011;11581;51.250;6.778;2023-02-01T06:28:16;21.63;;;4.25;;
22829;SDS011;11581;51.250;6.778;2023-02-01T06:30:44;11.93;;;2.70;;
22829;SDS011;11581;51.250;6.778;2023-02-01T06:33:12;13.68;;;2.53;;
22829;SDS011;11581;51.250;6.778;2023-02-01T06:35:40;11.05;;;2.83;;
22829;SDS011;11581;51.250;6.778;2023-02-01T06:38:09;15.20;;;3.33;;
22829;SDS011;11581;51.250;6.778;2023-02-01T06:40:35;14.32;;;3.65;;
22829;SDS011;11581;51.250;6.778;2023-02-01T06:43:02;19.13;;;3.25;;
22829;SDS011;11581;51.250;6.778;2023-02-01T06:45:29;14.52;;;3.20;;
22829;SDS011;11581;51.250;6.778;2023-02-01T06:47:57;17.48;;;3.47;;
22829;SDS011;11581;51.250;6.778;2023-02-01T06:50:24;16.25;;;3.38;;
22829;SDS011;11581;51.250;6.778;2023-02-01T06:52:51;18.75;;;2.80;;
22829;SDS011;11581;51.250;6.778;2023-02-01T06:55:18;18.98;;;3.20;;
22829;SDS011;11581;51.250;6.778;2023-02-01T06:57:44;7.53;;;2.45;;
22829;SDS011;11581;51.250;6.778;2023-02-01T07:00:11;10.68;;;2.75;;
22829;SDS011;11581;51.250;6.778;2023-02-01T07:02:39;16.27;;;2.78;;
22829;SDS011;11581;51.250;6.778;2023-02-01T07:05:08;14.70;;;2.97;;
22829;SDS011;11581;51.250;6.778;2023-02-01T07:07:35;13.60;;;2.97;;
22829;SDS011;11581;51.250;6.778;2023-02-01T07:10:02;12.43;;;3.08;;
22829;SDS011;11581;51.250;6.778;2023-02-01T07:12:29;12.63;;;3.17;;
22829;SDS011;11581;51.250;6.778;2023-02-01T07:14:55;15.57;;;2.83;;
22829;SDS011;11581;51.250;6.778;2023-02-01T07:17:23;16.60;;;3.10;;
22829;SDS011;11581;51.250;6.778;2023-02-01T07:19:49;14.93;;;3.40;;
22829;SDS011;11581;51.250;6.778;2023-02-01T07:22:18;13.48;;;2.72;;
22829;SDS011;11581;51.250;6.778;2023-02-01T07:24:45;14.93;;;2.80;;
22829;SDS011;11581;51.250;6.778;2023-02-01T07:27:11;13.18;;;2.88;;
22829;SDS011;11581;51.250;6.778;2023-02-01T07:29:38;13.15;;;2.58;;
22829;SDS011;11581;51.250;6.778;2023-02-01T07:32:05;15.95;;;3.78;;
22829;SDS011;11581;51.250;6.778;2023-02-01T07:34:32;14.65;;;3.35;;
22829;SDS011;11581;51.250;6.778;2023-02-01T07:36:59;12.20;;;3.17;;
22829;SDS011;11581;51.250;6.778;2023-02-01T07:39:27;13.88;;;3.10;;
22829;SDS011;11581;51.250;6.778;2023-02-01T07:41:57;12.18;;;2.90;;
22829;SDS011;11581;51.250;6.778;2023-02-01T07:44:23;11.63;;;3.33;;
22829;SDS011;11581;51.250;6.778;2023-02-01T07:46:50;13.55;;;3.13;;
22829;SDS011;11581;51.250;6.778;2023-02-01T07:49:17;9.38;;;3.28;;
22829;SDS011;11581;51.250;6.778;2023-02-01T07:51:43;14.25;;;3.58;;
22829;SDS011;11581;51.250;6.778;2023-02-01T07:54:13;12.35;;;3.25;;
22829;SDS011;11581;51.250;6.778;2023-02-01T07:56:41;15.77;;;3.47;;
22829;SDS011;11581;51.250;6.778;2023-02-01T07:59:08;11.70;;;3.22;;
22829;SDS011;11581;51.250;6.778;2023-02-01T08:01:36;18.63;;;4.03;;
22829;SDS011;11581;51.250;6.778;2023-02-01T08:04:02;18.27;;;3.50;;
22829;SDS011;11581;51.250;6.778;2023-02-01T08:06:30;15.98;;;3.58;;
22829;SDS011;11581;51.250;6.778;2023-02-01T08:08:59;12.63;;;3.10;;
22829;SDS011;11581;51.250;6.778;2023-02-01T08:11:26;17.77;;;3.72;;
22829;SDS011;11581;51.250;6.778;2023-02-01T08:13:54;18.92;;;4.30;;
22829;SDS011;11581;51.250;6.778;2023-02-01T08:16:21;14.93;;;2.95;;
22829;SDS011;11581;51.250;6.778;2023-02-01T08:18:49;17.42;;;3.22;;
22829;SDS011;11581;51.250;6.778;2023-02-01T08:21:17;14.20;;;3.58;;
22829;SDS011;11581;51.250;6.778;2023-02-01T08:23:47;13.05;;;3.42;;
22829;SDS011;11581;51.250;6.778;2023-02-01T08:26:14;13.13;;;3.25;;
22829;SDS011;11581;51.250;6.778;2023-02-01T08:28:43;12.80;;;3.30;;
22829;SDS011;11581;51.250;6.778;2023-02-01T08:31:13;10.60;;;3.55;;
22829;SDS011;11581;51.250;6.778;2023-02-01T08:33:41;15.00;;;3.63;;
22829;SDS011;11581;51.250;6.778;2023-02-01T08:36:10;15.40;;;3.55;;
22829;SDS011;11581;51.250;6.778;2023-02-01T08:38:37;15.35;;;3.38;;
22829;SDS011;11581;51.250;6.778;2023-02-01T08:41:06;13.52;;;3.25;;
22829;SDS011;11581;51.250;6.778;2023-02-01T08:43:33;14.18;;;3.33;;
22829;SDS011;11581;51.250;6.778;2023-02-01T08:46:00;9.68;;;2.60;;
22829;SDS011;11581;51.250;6.778;2023-02-01T08:48:28;15.10;;;3.40;;
22829;SDS011;11581;51.250;6.778;2023-02-01T08:50:55;19.08;;;3.75;;
22829;SDS011;11581;51.250;6.778;2023-02-01T08:53:22;13.32;;;3.50;;
22829;SDS011;11581;51.250;6.778;2023-02-01T08:55:48;19.10;;;3.78;;
22829;SDS011;11581;51.250;6.778;2023-02-01T08:58:15;10.10;;;2.63;;
22829;SDS011;11581;51.250;6.778;2023-02-01T09:00:42;15.07;;;3.45;;
22829;SDS011;11581;51.250;6.778;2023-02-01T09:03:10;14.88;;;3.70;;
22829;SDS011;11581;51.250;6.778;2023-02-01T09:05:38;21.20;;;3.55;;
22829;SDS011;11581;51.250;6.778;2023-02-01T09:08:05;15.52;;;2.88;;
22829;SDS011;11581;51.250;6.778;2023-02-01T09:10:36;12.70;;;3.45;;
22829;SDS011;11581;51.250;6.778;2023-02-01T09:13:02;15.07;;;3.22;;
22829;SDS011;11581;51.250;6.778;2023-02-01T09:15:29;18.63;;;3.15;;
22829;SDS011;11581;51.250;6.778;2023-02-01T09:17:56;11.90;;;3.47;;
22829;SDS011;11581;51.250;6.778;2023-02-01T09:20:23;20.40;;;4.35;;
22829;SDS011;11581;51.250;6.778;2023-02-01T09:22:51;14.98;;;3.50;;
22829;SDS011;11581;51.250;6.778;2023-02-01T09:25:18;9.63;;;2.78;;
22829;SDS011;11581;51.250;6.778;2023-02-01T09:27:45;11.88;;;3.30;;
22829;SDS011;11581;51.250;6.778;2023-02-01T09:30:12;14.88;;;3.33;;
22829;SDS011;11581;51.250;6.778;2023-02-01T09:32:39;10.35;;;3.22;;
22829;SDS011;11581;51.250;6.778;2023-02-01T09:35:06;20.48;;;4.07;;
22829;SDS011;11581;51.250;6.778;2023-02-01T09:37:33;18.70;;;3.03;;
22829;SDS011;11581;51.250;6.778;2023-02-01T09:40:02;11.10;;;2.90;;
22829;SDS011;11581;51.250;6.778;2023-02-01T09:45:18;13.73;;;2.70;;
22829;SDS011;11581;51.250;6.778;2023-02-01T09:47:51;15.00;;;3.50;;
22829;SDS011;11581;51.250;6.778;2023-02-01T09:50:21;13.15;;;3.65;;
22829;SDS011;11581;51.250;6.778;2023-02-01T09:52:55;19.23;;;4.43;;
22829;SDS011;11581;51.250;6.778;2023-02-01T09:55:30;17.75;;;3.05;;
22829;SDS011;11581;51.250;6.778;2023-02-01T09:58:04;14.23;;;2.88;;
22829;SDS011;11581;51.250;6.778;2023-02-01T10:00:35;10.77;;;3.80;;
22829;SDS011;11581;51.250;6.778;2023-02-01T10:03:04;17.75;;;4.00;;
22829;SDS011;11581;51.250;6.778;2023-02-01T10:05:44;13.95;;;3.58;;
22829;SDS011;11581;51.250;6.778;2023-02-01T10:08:32;14.15;;;3.08;;
22829;SDS011;11581;51.250;6.778;2023-02-01T10:11:07;16.52;;;3.72;;
22829;SDS011;11581;51.250;6.778;2023-02-01T10:13:48;15.63;;;3.15;;
22829;SDS011;11581;51.250;6.778;2023-02-01T10:16:24;11.77;;;3.60;;
22829;SDS011;11581;51.250;6.778;2023-02-01T10:19:16;10.35;;;3.22;;
22829;SDS011;11581;51.250;6.778;2023-02-01T10:21:53;10.45;;;3.35;;
22829;SDS011;11581;51.250;6.778;2023-02-01T10:24:34;13.20;;;2.80;;
22829;SDS011;11581;51.250;6.778;2023-02-01T10:27:13;11.75;;;2.88;;
22829;SDS011;11581;51.250;6.778;2023-02-01T10:29:43;15.10;;;3.45;;
22829;SDS011;11581;51.250;6.778;2023-02-01T10:32:13;11.18;;;2.83;;
22829;SDS011;11581;51.250;6.778;2023-02-01T10:34:42;15.43;;;3.00;;
22829;SDS011;11581;51.250;6.778;2023-02-01T10:37:17;9.10;;;3.08;;
22829;SDS011;11581;51.250;6.778;2023-02-01T10:39:50;13.93;;;3.17;;
22829;SDS011;11581;51.250;6.778;2023-02-01T10:42:22;19.40;;;4.25;;
22829;SDS011;11581;51.250;6.778;2023-02-01T10:44:52;15.50;;;3.42;;
22829;SDS011;11581;51.250;6.778;2023-02-01T10:47:22;13.20;;;3.33;;
22829;SDS011;11581;51.250;6.778;2023-02-01T10:49:50;8.93;;;2.58;;
22829;SDS011;11581;51.250;6.778;2023-02-01T10:52:24;16.00;;;3.42;;
22829;SDS011;11581;51.250;6.778;2023-02-01T10:57:56;11.57;;;2.92;;
22829;SDS011;11581;51.250;6.778;2023-02-01T11:00:24;14.27;;;3.63;;
22829;SDS011;11581;51.250;6.778;2023-02-01T11:02:51;13.93;;;2.63;;
22829;SDS011;11581;51.250;6.778;2023-02-01T11:05:19;14.32;;;3.88;;
22829;SDS011;11581;51.250;6.778;2023-02-01T11:07:48;14.25;;;3.05;;
22829;SDS011;11581;51.250;6.778;2023-02-01T11:13:03;11.13;;;2.67;;
22829;SDS011;11581;51.250;6.778;2023-02-01T11:15:31;11.63;;;2.53;;
22829;SDS011;11581;51.250;6.778;2023-02-01T11:17:58;14.65;;;2.45;;
22829;SDS011;11581;51.250;6.778;2023-02-01T11:20:41;15.25;;;3.28;;
22829;SDS011;11581;51.250;6.778;2023-02-01T11:23:12;10.50;;;2.70;;
22829;SDS011;11581;51.250;6.778;2023-02-01T11:25:47;18.08;;;3.33;;
22829;SDS011;11581;51.250;6.778;2023-02-01T11:28:17;14.65;;;2.58;;
22829;SDS011;11581;51.250;6.778;2023-02-01T11:30:45;13.48;;;3.17;;
22829;SDS011;11581;51.250;6.778;2023-02-01T11:33:15;9.57;;;2.75;;
22829;SDS011;11581;51.250;6.778;2023-02-01T11:35:43;8.75;;;2.55;;
22829;SDS011;11581;51.250;6.778;2023-02-01T11:38:12;10.43;;;2.45;;
22829;SDS011;11581;51.250;6.778;2023-02-01T11:40:47;12.13;;;3.03;;
22829;SDS011;11581;51.250;6.778;2023-02-01T11:43:17;11.75;;;2.40;;
22829;SDS011;11581;51.250;6.778;2023-02-01T11:45:56;12.82;;;2.92;;
22829;SDS011;11581;51.250;6.778;2023-02-01T11:48:25;8.15;;;2.45;;
22829;SDS011;11581;51.250;6.778;2023-02-01T11:50:57;15.27;;;3.08;;
22829;SDS011;11581;51.250;6.778;2023-02-01T11:53:38;11.57;;;2.78;;
22829;SDS011;11581;51.250;6.778;2023-02-01T11:56:17;12.18;;;3.13;;
22829;SDS011;11581;51.250;6.778;2023-02-01T11:58:58;10.20;;;2.30;;
22829;SDS011;11581;51.250;6.778;2023-02-01T12:01:49;13.68;;;3.17;;
22829;SDS011;11581;51.250;6.778;2023-02-01T12:04:39;13.55;;;2.63;;
22829;SDS011;11581;51.250;6.778;2023-02-01T12:07:23;10.35;;;3.22;;
22829;SDS011;11581;51.250;6.778;2023-02-01T12:10:01;15.20;;;3.08;;
22829;SDS011;11581;51.250;6.778;2023-02-01T12:12:36;10.35;;;2.50;;
22829;SDS011;11581;51.250;6.778;2023-02-01T12:15:14;10.05;;;2.30;;
22829;SDS011;11581;51.250;6.778;2023-02-01T12:17:52;11.13;;;3.38;;
22829;SDS011;11581;51.250;6.778;2023-02-01T12:20:49;9.60;;;2.55;;
22829;SDS011;11581;51.250;6.778;2023-02-01T12:23:30;11.90;;;3.13;;
22829;SDS011;11581;51.250;6.778;2023-02-01T12:26:12;9.93;;;2.70;;
22829;SDS011;11581;51.250;6.778;2023-02-01T12:31:48;9.57;;;2.65;;
22829;SDS011;11581;51.250;6.778;2023-02-01T12:34:34;13.40;;;2.80;;
22829;SDS011;11581;51.250;6.778;2023-02-01T12:37:20;10.38;;;2.78;;
22829;SDS011;11581;51.250;6.778;2023-02-01T12:40:15;15.45;;;3.88;;
22829;SDS011;11581;51.250;6.778;2023-02-01T12:42:55;12.85;;;3.60;;
22829;SDS011;11581;51.250;6.778;2023-02-01T12:45:31;11.75;;;3.15;;
22829;SDS011;11581;51.250;6.778;2023-02-01T12:48:08;9.85;;;3.38;;
22829;SDS011;11581;51.250;6.778;2023-02-01T12:50:50;8.20;;;2.13;;
22829;SDS011;11581;51.250;6.778;2023-02-01T12:53:23;9.00;;;2.25;;
22829;SDS011;11581;51.250;6.778;2023-02-01T12:58:22;10.57;;;3.25;;
22829;SDS011;11581;51.250;6.778;2023-02-01T13:00:55;14.95;;;2.90;;
22829;SDS011;11581;51.250;6.778;2023-02-01T13:03:29;12.25;;;2.53;;
22829;SDS011;11581;51.250;6.778;2023-02-01T13:06:05;12.10;;;2.55;;
22829;SDS011;11581;51.250;6.778;2023-02-01T13:08:39;10.77;;;2.65;;
22829;SDS011;11581;51.250;6.778;2023-02-01T13:11:11;13.57;;;3.28;;
22829;SDS011;11581;51.250;6.778;2023-02-01T13:13:45;11.32;;;2.38;;
22829;SDS011;11581;51.250;6.778;2023-02-01T13:16:19;11.32;;;2.70;;
22829;SDS011;11581;51.250;6.778;2023-02-01T13:18:54;12.10;;;2.80;;
22829;SDS011;11581;51.250;6.778;2023-02-01T13:21:31;10.93;;;2.53;;
22829;SDS011;11581;51.250;6.778;2023-02-01T13:24:03;12.30;;;2.95;;
22829;SDS011;11581;51.250;6.778;2023-02-01T13:26:30;11.50;;;2.65;;
22829;SDS011;11581;51.250;6.778;2023-02-01T13:28:57;12.77;;;2.58;;
22829;SDS011;11581;51.250;6.778;2023-02-01T13:31:38;10.05;;;2.22;;
22829;SDS011;11581;51.250;6.778;2023-02-01T13:37:43;10.55;;;2.40;;
22829;SDS011;11581;51.250;6.778;2023-02-01T13:40:29;8.77;;;2.30;;
22829;SDS011;11581;51.250;6.778;2023-02-01T13:43:05;11.02;;;2.50;;
22829;SDS011;11581;51.250;6.778;2023-02-01T13:45:41;10.43;;;2.70;;
22829;SDS011;11581;51.250;6.778;2023-02-01T13:48:14;12.82;;;2.70;;
22829;SDS011;11581;51.250;6.778;2023-02-01T13:50:50;9.50;;;2.05;;
22829;SDS011;11581;51.250;6.778;2023-02-01T13:53:22;10.05;;;2.05;;
22829;SDS011;11581;51.250;6.778;2023-02-01T13:55:55;7.65;;;1.55;;
22829;SDS011;11581;51.250;6.778;2023-02-01T13:58:29;13.13;;;2.80;;
22829;SDS011;11581;51.250;6.778;2023-02-01T14:03:59;9.25;;;1.67;;
22829;SDS011;11581;51.250;6.778;2023-02-01T14:06:44;10.43;;;2.20;;
22829;SDS011;11581;51.250;6.778;2023-02-01T14:09:15;10.70;;;2.30;;
22829;SDS011;11581;51.250;6.778;2023-02-01T14:11:45;13.57;;;2.53;;
22829;SDS011;11581;51.250;6.778;2023-02-01T14:17:29;7.18;;;2.05;;
22829;SDS011;11581;51.250;6.778;2023-02-01T14:26:12;13.43;;;2.28;;
22829;SDS011;11581;51.250;6.778;2023-02-01T14:28:43;12.20;;;2.15;;
22829;SDS011;11581;51.250;6.778;2023-02-01T14:31:14;13.40;;;2.55;;
22829;SDS011;11581;51.250;6.778;2023-02-01T14:36:25;8.73;;;1.73;;
22829;SDS011;11581;51.250;6.778;2023-02-01T14:38:54;12.48;;;1.88;;
22829;SDS011;11581;51.250;6.778;2023-02-01T14:41:31;7.63;;;2.58;;
22829;SDS011;11581;51.250;6.778;2023-02-01T14:47:08;7.20;;;1.90;;
22829;SDS011;11581;51.250;6.778;2023-02-01T14:49:38;4.63;;;1.48;;
22829;SDS011;11581;51.250;6.778;2023-02-01T14:52:15;9.93;;;2.05;;
22829;SDS011;11581;51.250;6.778;2023-02-01T14:54:48;12.13;;;2.58;;
22829;SDS011;11581;51.250;6.778;2023-02-01T14:57:18;13.18;;;2.42;;
22829;SDS011;11581;51.250;6.778;2023-02-01T14:59:46;12.00;;;2.03;;
22829;SDS011;11581;51.250;6.778;2023-02-01T15:02:21;11.82;;;2.63;;
22829;SDS011;11581;51.250;6.778;2023-02-01T15:04:53;11.50;;;2.50;;
22829;SDS011;11581;51.250;6.778;2023-02-01T15:07:22;9.38;;;2.15;;
22829;SDS011;11581;51.250;6.778;2023-02-01T15:09:54;12.77;;;2.78;;
22829;SDS011;11581;51.250;6.778;2023-02-01T15:12:24;14.63;;;1.95;;
22829;SDS011;11581;51.250;6.778;2023-02-01T15:15:13;9.02;;;2.15;;
22829;SDS011;11581;51.250;6.778;2023-02-01T15:17:48;8.50;;;2.40;;
22829;SDS011;11581;51.250;6.778;2023-02-01T15:20:17;14.05;;;2.25;;
22829;SDS011;11581;51.250;6.778;2023-02-01T15:22:53;9.57;;;2.25;;
22829;SDS011;11581;51.250;6.778;2023-02-01T15:25:24;13.73;;;2.70;;
22829;SDS011;11581;51.250;6.778;2023-02-01T15:27:53;11.65;;;2.40;;
22829;SDS011;11581;51.250;6.778;2023-02-01T15:30:21;8.38;;;2.80;;
22829;SDS011;11581;51.250;6.778;2023-02-01T15:32:48;10.27;;;2.15;;
22829;SDS011;11581;51.250;6.778;2023-02-01T15:41:08;10.35;;;2.00;;
22829;SDS011;11581;51.250;6.778;2023-02-01T15:43:40;11.48;;;3.13;;
22829;SDS011;11581;51.250;6.778;2023-02-01T15:46:10;11.43;;;2.40;;
22829;SDS011;11581;51.250;6.778;2023-02-01T15:48:43;9.95;;;2.20;;